Astoria, Oregon
Current Conditions -  °F | °C
As of 7:55 AM on Thursday 18 Dec 2014 (Local Time) from KAST Reporting Station
Light Rain Light Rain  
Wind Chill: 43°   Ceiling: 3500
Heat Index: 46°   Visibility: 10mi
Dew Point: 43°   Wind: 6mph
Humidity: 89%   Direction: 100°E
Pressure: 29.87"   Gusts: NA
Location:  46.19°N, 123.83°W
Report Text: KAST 181555Z AUTO 10005KT 10SM -RA OVC035 08/06 A2987 RMK AO2 RAB52 SLP113 P0000 T00780061
Loading
Personal Weather Stations






























Interactive Weather Map New forecast layout! Learn more

10-Day Weather Forecast

Advertisements
Track Severe Weather on mobile